Time;durP1;ratioP1;P1;durP2;ratioP2;P2;SDS_P1;SDS_P2;PMS_P1;PMS_P2;Temp;Humidity;BMP_temperature;BMP_pressure;BME280_temperature;BME280_humidity;BME280_pressure;Samples;Min_cycle;Max_cycle;Signal;HPM_P1;HPM_P2
2021/04/09 00:00:22;;;;;;;13.93;8.50;;;3.10;99.90;;;4.02;60.06;100768.16;4994602;28;20038;-86
2021/04/09 00:02:49;;;;;;;15.85;8.73;;;3.20;99.90;;;4.08;59.63;100766.91;4995290;28;20042;-86
2021/04/09 00:05:21;;;;;;;15.73;8.07;;;3.20;99.90;;;4.05;59.59;100765.56;4993486;28;20060;-85
2021/04/09 00:07:49;;;;;;;16.27;8.25;;;3.20;99.90;;;4.06;59.50;100747.06;4998703;28;20320;-86
2021/04/09 00:10:27;;;;;;;15.18;8.52;;;3.30;99.90;;;4.06;59.98;100742.34;5012258;28;20042;-84
2021/04/09 00:12:54;;;;;;;14.13;7.65;;;3.30;99.90;;;4.17;59.78;100738.19;5013484;28;20533;-84
2021/04/09 00:15:21;;;;;;;14.70;7.45;;;3.40;99.90;;;4.25;59.15;100733.88;5028514;28;20061;-85
2021/04/09 00:17:47;;;;;;;11.93;7.80;;;3.40;99.90;;;4.29;59.48;100734.88;5014639;28;20034;-85
2021/04/09 00:20:23;;;;;;;13.48;7.65;;;3.50;99.90;;;4.23;59.84;100730.63;5013131;28;20094;-83
2021/04/09 00:22:49;;;;;;;13.75;7.93;;;3.50;99.90;;;4.26;59.26;100724.47;5029094;28;20125;-84
2021/04/09 00:25:18;;;;;;;18.20;8.05;;;3.60;99.90;;;4.29;59.40;100728.53;5015086;28;20038;-83
2021/04/09 00:27:45;;;;;;;13.57;7.47;;;3.60;99.90;;;4.26;59.51;100730.00;5016098;28;20034;-84
2021/04/09 00:30:24;;;;;;;13.95;7.35;;;3.60;99.90;;;4.38;59.88;100726.66;5032718;28;20125;-84
2021/04/09 00:32:50;;;;;;;11.18;7.22;;;3.70;99.90;;;4.38;59.36;100721.94;5032376;28;20025;-83
2021/04/09 00:35:18;;;;;;;12.50;7.30;;;3.70;99.90;;;4.38;59.10;100723.88;5018036;28;20034;-82
2021/04/09 00:37:44;;;;;;;14.90;7.40;;;3.70;99.90;;;4.42;59.83;100717.41;5017207;28;20459;-84
2021/04/09 00:40:11;;;;;;;18.10;8.25;;;3.70;99.90;;;4.44;59.05;100709.59;5032717;28;20057;-85
2021/04/09 00:42:41;;;;;;;12.65;6.78;;;3.80;99.90;;;4.44;59.32;100708.78;5032077;28;20026;-84
2021/04/09 00:45:09;;;;;;;16.17;7.55;;;3.80;99.90;;;4.52;59.61;100703.31;5033565;28;20037;-84
2021/04/09 00:47:35;;;;;;;12.60;7.43;;;3.80;99.90;;;4.54;59.57;100703.81;5018694;28;20034;-85
2021/04/09 00:50:02;;;;;;;15.00;7.00;;;3.80;99.90;;;4.57;59.39;100700.41;5034188;28;20030;-84
2021/04/09 00:52:33;;;;;;;13.10;7.28;;;3.90;99.90;;;4.61;59.66;100693.13;5017512;28;20021;-85
2021/04/09 00:55:01;;;;;;;14.25;7.38;;;3.90;99.90;;;4.59;59.43;100692.59;5017866;28;20026;-83
2021/04/09 00:57:28;;;;;;;14.98;7.28;;;4.00;99.90;;;4.64;59.20;100695.25;5020944;28;20030;-83
2021/04/09 00:59:55;;;;;;;12.48;6.95;;;4.00;99.90;;;4.73;59.12;100685.03;5020782;28;20037;-83
2021/04/09 01:02:22;;;;;;;12.82;6.93;;;4.00;99.90;;;4.71;59.90;100690.09;5034740;28;20061;-84
2021/04/09 01:04:49;;;;;;;14.05;6.57;;;4.10;99.90;;;4.79;59.20;100686.53;5037800;28;20057;-83
2021/04/09 01:07:15;;;;;;;15.68;7.15;;;4.00;99.90;;;4.82;59.15;100696.13;5035518;28;20026;-86
2021/04/09 01:09:41;;;;;;;11.70;6.50;;;4.10;99.90;;;4.94;58.92;100690.03;4998522;28;20042;-84
2021/04/09 01:12:09;;;;;;;13.20;7.15;;;4.10;99.90;;;4.94;58.64;100693.59;4997712;28;20174;-84
2021/04/09 01:14:36;;;;;;;12.88;6.68;;;4.20;99.90;;;5.06;59.00;100684.69;4998180;28;20084;-83
2021/04/09 01:17:34;;;;;;;13.98;6.25;;;4.30;99.90;;;5.09;58.48;100689.56;4997987;28;20026;-86
2021/04/09 01:20:47;;;;;;;13.25;5.88;;;4.30;99.90;;;5.14;58.77;100673.63;4998061;28;20057;-86
2021/04/09 01:23:59;;;;;;;11.77;7.20;;;4.40;99.90;;;5.16;58.14;100674.16;4998775;28;20032;-84
2021/04/09 01:27:12;;;;;;;14.05;6.50;;;4.40;99.90;;;5.14;58.90;100676.41;4999793;28;20038;-85
2021/04/09 01:30:20;;;;;;;11.63;6.78;;;4.40;99.90;;;5.20;58.95;100666.00;4996243;28;20486;-85
2021/04/09 01:32:48;;;;;;;11.35;6.13;;;4.50;99.90;;;5.12;59.00;100664.03;5000075;28;20026;-84
2021/04/09 01:35:17;;;;;;;10.23;6.03;;;4.50;99.90;;;5.21;58.82;100667.63;4997856;28;20046;-84
2021/04/09 01:37:55;;;;;;;10.75;6.45;;;4.50;99.90;;;5.17;58.61;100656.38;4997252;28;20367;-84
2021/04/09 01:40:38;;;;;;;11.98;6.78;;;4.50;99.90;;;5.20;58.97;100654.94;4995423;28;20040;-84
2021/04/09 01:43:11;;;;;;;13.93;6.18;;;4.50;99.90;;;5.23;58.87;100645.97;5011163;28;20045;-84
2021/04/09 01:45:37;;;;;;;12.45;6.20;;;4.60;99.90;;;5.19;58.73;100648.56;5003191;28;20026;-83
2021/04/09 01:48:08;;;;;;;15.30;6.50;;;4.50;99.90;;;5.15;59.09;100647.59;5029806;28;20030;-81
2021/04/09 01:50:38;;;;;;;17.67;6.72;;;4.50;99.90;;;5.25;58.48;100640.94;5014805;28;20133;-84
2021/04/09 01:53:09;;;;;;;15.68;6.60;;;4.60;99.90;;;5.14;58.69;100634.88;4997396;28;20517;-86
2021/04/09 01:55:45;;;;;;;14.25;6.53;;;4.60;99.90;;;5.21;59.33;100632.44;4995363;28;20089;-85
2021/04/09 01:58:14;;;;;;;14.60;6.43;;;4.60;99.90;;;5.18;58.96;100633.09;5011349;28;20026;-86
2021/04/09 02:00:41;;;;;;;9.75;5.88;;;4.50;99.90;;;5.16;58.69;100632.63;5011136;28;20034;-84
2021/04/09 02:03:09;;;;;;;10.75;6.35;;;4.60;99.90;;;5.19;59.01;100625.59;5011574;28;20058;-85
2021/04/09 02:05:38;;;;;;;12.60;6.32;;;4.60;99.90;;;5.31;58.62;100621.06;4995251;28;20037;-87
2021/04/09 02:08:11;;;;;;;10.27;6.05;;;4.60;99.90;;;5.27;58.97;100616.47;5013382;28;20085;-87
2021/04/09 02:10:38;;;;;;;12.20;5.40;;;4.60;99.90;;;5.18;59.32;100608.19;4996872;28;20037;-84
2021/04/09 02:13:09;;;;;;;13.50;5.68;;;4.60;99.90;;;5.35;58.56;100610.16;4996943;28;20026;-84
2021/04/09 02:15:36;;;;;;;12.15;6.68;;;4.70;99.90;;;5.33;58.96;100606.88;4997099;28;20404;-84
2021/04/09 02:18:04;;;;;;;11.70;6.35;;;4.70;99.90;;;5.28;58.68;100607.03;5011722;28;20066;-85
2021/04/09 02:20:30;;;;;;;9.73;5.88;;;4.70;99.90;;;5.32;58.83;100603.31;5011138;28;20034;-87
2021/04/09 02:22:56;;;;;;;12.68;6.40;;;4.70;99.90;;;5.27;59.47;100597.91;4996167;28;20030;-85
2021/04/09 02:25:23;;;;;;;10.35;5.75;;;4.70;99.90;;;5.34;59.09;100591.91;5011320;28;20037;-85
2021/04/09 02:27:52;;;;;;;11.65;5.57;;;4.70;99.90;;;5.31;59.17;100590.59;4996381;28;20046;-84
2021/04/09 02:30:22;;;;;;;12.50;6.63;;;4.70;99.90;;;5.41;59.13;100589.47;4994500;28;20165;-85
2021/04/09 02:32:49;;;;;;;12.05;5.45;;;4.70;99.90;;;5.44;58.46;100588.00;5010844;28;20037;-84
2021/04/09 02:35:16;;;;;;;9.90;6.38;;;4.80;99.90;;;5.48;58.73;100588.97;4995457;28;20109;-86
2021/04/09 02:37:48;;;;;;;12.27;5.85;;;4.80;99.90;;;5.43;59.16;100584.41;4995597;28;20026;-84
2021/04/09 02:40:27;;;;;;;13.00;6.55;;;4.80;99.90;;;5.40;59.14;100582.28;5010225;28;20161;-86
2021/04/09 02:42:54;;;;;;;14.40;6.47;;;4.80;99.90;;;5.40;59.12;100587.84;4994511;28;20296;-86
2021/04/09 02:45:24;;;;;;;10.75;6.47;;;4.80;99.90;;;5.44;58.59;100576.91;4995570;28;20034;-82
2021/04/09 02:47:56;;;;;;;13.90;6.22;;;4.80;99.90;;;5.55;58.34;100575.47;5011444;28;20081;-86
2021/04/09 02:50:39;;;;;;;12.90;5.28;;;4.90;99.90;;;5.52;58.78;100571.38;5011512;28;20511;-84
2021/04/09 02:53:19;;;;;;;10.15;5.53;;;4.80;99.90;;;5.51;58.95;100564.22;5011316;28;20092;-83
2021/04/09 02:55:48;;;;;;;12.65;6.50;;;4.80;99.90;;;5.48;58.83;100558.50;5010387;28;20145;-86
2021/04/09 02:58:18;;;;;;;12.73;5.68;;;4.80;99.90;;;5.43;59.18;100562.25;5009795;28;20030;-83
2021/04/09 03:00:48;;;;;;;11.90;5.93;;;4.80;99.90;;;5.54;58.78;100571.88;4995063;28;20462;-85
2021/04/09 03:03:17;;;;;;;9.65;5.53;;;4.80;99.90;;;5.55;59.11;100556.06;5010834;28;20121;-86
2021/04/09 03:05:48;;;;;;;9.63;6.07;;;4.80;99.90;;;5.55;58.79;100559.66;4993620;28;20129;-85
2021/04/09 03:08:18;;;;;;;9.43;6.18;;;4.90;99.90;;;5.71;58.35;100555.25;5001944;28;20496;-85
2021/04/09 03:10:44;;;;;;;12.63;5.97;;;4.90;99.90;;;5.67;58.87;100548.72;5030016;28;20043;-84
2021/04/09 03:13:11;;;;;;;10.13;5.40;;;4.90;99.90;;;5.71;58.12;100548.88;5014798;28;20022;-84
2021/04/09 03:15:51;;;;;;;14.05;6.82;;;4.90;99.90;;;5.75;58.18;100545.13;5029776;28;20033;-84
2021/04/09 03:18:20;;;;;;;11.82;6.30;;;5.00;99.90;;;5.67;58.19;100534.88;5014769;28;20030;-85
2021/04/09 03:20:46;;;;;;;11.20;6.00;;;5.00;99.90;;;5.67;58.41;100528.50;5029938;28;20030;-85
2021/04/09 03:23:12;;;;;;;12.05;6.32;;;5.00;99.90;;;5.69;58.07;100532.56;5016452;28;20092;-86
2021/04/09 03:25:38;;;;;;;13.48;7.07;;;5.00;99.90;;;5.83;58.03;100529.63;5014683;28;20034;-84
2021/04/09 03:28:08;;;;;;;12.23;5.63;;;5.00;99.90;;;5.67;58.45;100532.09;5030468;28;20400;-85
2021/04/09 03:30:34;;;;;;;10.35;5.95;;;5.00;99.90;;;5.67;58.29;100529.34;5015107;28;20040;-84
2021/04/09 03:33:11;;;;;;;;;;;;;;;;;;;;;
2021/04/09 03:35:37;;;;;;;9.90;5.55;;;5.00;99.90;;;5.77;58.74;100531.75;5014956;28;20029;-83
2021/04/09 03:38:03;;;;;;;15.05;6.78;;;5.00;99.90;;;5.78;58.54;100525.06;5014687;28;20453;-85
2021/04/09 03:40:28;;;;;;;14.27;6.47;;;5.00;99.90;;;5.76;58.46;100530.13;5012807;28;20045;-86
2021/04/09 03:42:54;;;;;;;14.95;6.47;;;5.10;99.90;;;5.84;57.84;100522.94;5029712;28;20429;-85
2021/04/09 03:45:20;;;;;;;16.13;6.03;;;5.10;99.90;;;5.85;58.55;100530.09;5029762;28;20038;-84
2021/04/09 03:47:53;;;;;;;13.25;6.85;;;5.10;99.90;;;5.81;58.35;100527.16;5015885;28;20030;-84
2021/04/09 03:50:19;;;;;;;14.95;6.75;;;5.10;99.90;;;5.83;58.26;100521.31;5031677;28;20420;-86
2021/04/09 03:52:45;;;;;;;14.02;7.32;;;5.10;99.90;;;5.85;58.13;100519.00;5033465;28;20034;-87
2021/04/09 03:55:14;;;;;;;13.00;6.55;;;5.20;99.90;;;5.86;58.30;100517.91;5018088;28;20034;-83
2021/04/09 03:57:39;;;;;;;16.63;6.75;;;5.10;99.90;;;5.98;58.31;100528.31;5032606;28;20462;-84
2021/04/09 04:00:07;;;;;;;14.57;7.07;;;5.10;99.90;;;5.88;58.67;100515.59;5032401;28;20285;-82
2021/04/09 04:02:34;;;;;;;13.57;7.35;;;5.10;99.90;;;5.70;58.35;100505.69;5023350;28;20052;-84
2021/04/09 04:05:00;;;;;;;11.48;6.65;;;5.10;99.90;;;5.84;58.34;100509.88;5046467;28;20054;-80
2021/04/09 04:07:26;;;;;;;13.57;6.90;;;5.10;99.90;;;5.75;58.73;100508.25;5033543;28;20492;-87
2021/04/09 04:09:52;;;;;;;10.40;6.65;;;5.10;99.90;;;5.76;58.62;100509.91;4997091;28;20026;-84
2021/04/09 04:12:18;;;;;;;10.98;6.80;;;5.00;99.90;;;5.77;59.03;100515.13;4998450;28;20022;-87
2021/04/09 04:14:44;;;;;;;16.10;7.10;;;5.00;99.90;;;5.64;58.98;100507.81;5029166;28;20030;-80
2021/04/09 04:17:10;;;;;;;12.80;6.35;;;5.00;99.90;;;5.74;58.73;100512.19;5008826;28;20039;-84
2021/04/09 04:19:35;;;;;;;22.25;7.20;;;5.00;99.90;;;5.65;59.42;100506.66;4994029;28;20200;-86
2021/04/09 04:22:02;;;;;;;15.55;7.03;;;5.00;99.90;;;5.67;59.14;100511.88;5009988;28;20026;-87
2021/04/09 04:24:28;;;;;;;14.77;7.10;;;4.90;99.90;;;5.61;59.44;100511.25;5010699;28;20060;-83
2021/04/09 04:26:53;;;;;;;13.00;6.22;;;4.90;99.90;;;5.65;58.97;100506.66;5009345;28;20125;-82
2021/04/09 04:29:20;;;;;;;15.52;6.20;;;4.90;99.90;;;5.59;59.29;100507.97;5009795;28;20054;-84
2021/04/09 04:31:47;;;;;;;16.67;6.82;;;4.90;99.90;;;5.66;59.41;100499.97;4994265;28;20483;-84
2021/04/09 04:34:13;;;;;;;11.48;6.47;;;5.00;99.90;;;5.70;58.84;100503.72;4993504;28;20137;-83
2021/04/09 04:36:38;;;;;;;14.77;6.78;;;4.90;99.90;;;5.75;58.81;100505.50;5010035;28;20030;-82
2021/04/09 04:39:06;;;;;;;11.80;6.38;;;5.00;99.90;;;5.68;59.26;100497.69;5010583;28;20026;-83
2021/04/09 04:41:32;;;;;;;12.52;6.57;;;5.00;99.90;;;5.71;59.15;100510.09;4994892;28;20062;-85
2021/04/09 04:43:58;;;;;;;12.90;6.20;;;4.90;99.90;;;5.61;59.27;100500.16;4994054;28;20065;-84
2021/04/09 04:46:27;;;;;;;13.93;6.03;;;4.90;99.90;;;5.50;59.12;100498.03;5010150;28;20038;-84
2021/04/09 04:48:53;;;;;;;8.38;5.90;;;4.90;99.90;;;5.68;59.06;100494.91;5011935;28;20038;-84
2021/04/09 04:51:19;;;;;;;14.13;6.55;;;4.80;99.90;;;5.55;59.99;100487.63;5014673;28;20038;-86
2021/04/09 04:53:46;;;;;;;11.50;6.47;;;4.90;99.90;;;5.59;59.47;100496.91;5000633;28;20037;-83
2021/04/09 04:56:12;;;;;;;13.68;7.53;;;4.80;99.90;;;5.51;59.50;100488.59;5000584;28;20053;-87
2021/04/09 04:58:38;;;;;;;14.38;6.65;;;4.90;99.90;;;5.65;59.81;100490.03;5000208;28;20026;-87
2021/04/09 05:01:04;;;;;;;11.48;7.25;;;4.90;99.90;;;5.62;59.91;100485.16;5024776;28;20105;-84
2021/04/09 05:03:30;;;;;;;10.77;6.28;;;4.80;99.90;;;5.46;59.92;100480.47;5026140;28;20072;-84
2021/04/09 05:05:57;;;;;;;12.18;6.28;;;4.80;99.90;;;5.54;60.02;100477.69;5031958;28;20034;-85
2021/04/09 05:08:23;;;;;;;13.50;6.65;;;4.80;99.90;;;5.56;60.10;100477.34;5023960;28;20049;-84
2021/04/09 05:10:49;;;;;;;15.10;7.13;;;4.80;99.90;;;5.56;59.86;100477.34;5023252;28;20390;-84
2021/04/09 05:13:15;;;;;;;12.95;7.18;;;4.90;99.90;;;5.65;59.71;100473.41;5032526;28;20608;-84
2021/04/09 05:15:41;;;;;;;15.57;6.82;;;4.90;99.90;;;5.54;60.10;100474.09;5035590;28;20049;-84
2021/04/09 05:18:07;;;;;;;14.90;6.75;;;4.90;99.90;;;5.66;59.87;100479.78;5035934;28;20474;-84
2021/04/09 05:20:33;;;;;;;13.05;7.40;;;4.90;99.90;;;5.60;60.23;100472.78;5019773;28;20108;-83
2021/04/09 05:22:59;;;;;;;14.73;7.43;;;5.00;99.90;;;5.60;60.09;100476.38;5017088;28;20413;-82
2021/04/09 05:25:25;;;;;;;11.63;7.40;;;5.00;99.90;;;5.82;59.45;100487.22;5018614;28;20044;-83
2021/04/09 05:27:50;;;;;;;12.70;6.47;;;5.00;99.90;;;5.78;59.44;100486.25;5032464;28;20032;-83
2021/04/09 05:30:17;;;;;;;12.27;7.18;;;5.10;99.90;;;5.98;59.25;100482.00;5032805;28;20030;-83
2021/04/09 05:32:43;;;;;;;11.95;6.10;;;5.10;99.90;;;5.91;59.06;100480.91;5033849;28;20034;-85
2021/04/09 05:35:10;;;;;;;13.07;6.40;;;5.20;99.90;;;6.00;58.86;100485.25;5033930;28;20029;-83
2021/04/09 05:37:36;;;;;;;15.70;6.72;;;5.20;99.90;;;6.06;58.78;100489.47;5033144;28;20121;-84
2021/04/09 05:40:05;;;;;;;12.43;6.25;;;5.30;99.90;;;6.09;58.74;100480.50;5017128;28;20030;-83
2021/04/09 05:42:32;;;;;;;13.07;6.88;;;5.30;99.90;;;6.22;58.01;100481.41;5032537;28;20072;-84
2021/04/09 05:44:58;;;;;;;11.48;6.70;;;5.40;99.90;;;6.10;58.88;100478.53;5019260;28;20056;-84
2021/04/09 05:47:26;;;;;;;11.30;6.75;;;5.50;99.90;;;6.25;58.55;100472.44;5033594;28;20042;-84
2021/04/09 05:49:52;;;;;;;13.02;6.80;;;5.50;99.90;;;6.32;57.75;100479.06;5018153;28;20458;-84
2021/04/09 05:52:18;;;;;;;15.60;6.63;;;5.50;99.90;;;6.40;58.30;100479.34;5034025;28;20034;-83
2021/04/09 05:54:44;;;;;;;12.55;6.45;;;5.50;99.90;;;6.37;58.05;100472.53;5033730;28;20397;-84
2021/04/09 05:57:11;;;;;;;15.48;7.13;;;5.60;99.90;;;6.39;58.08;100470.22;5019222;28;20030;-86
2021/04/09 05:59:36;;;;;;;13.93;7.18;;;5.60;99.90;;;6.38;58.49;100476.94;5034284;28;20030;-85
2021/04/09 06:04:32;;;;;;;17.00;6.22;;;5.70;99.90;;;6.71;57.64;100468.75;5016914;28;20049;-83
2021/04/09 06:06:58;;;;;;;14.73;7.32;;;5.80;99.90;;;6.73;57.52;100467.25;5018043;28;20041;-84
2021/04/09 06:09:25;;;;;;;14.90;7.07;;;5.80;99.90;;;6.79;57.33;100468.69;5018018;28;20029;-83
2021/04/09 06:11:52;;;;;;;11.52;6.72;;;6.00;99.90;;;6.91;56.70;100470.72;5017623;28;20041;-85
2021/04/09 06:14:19;;;;;;;14.32;6.93;;;6.10;99.90;;;7.08;57.09;100472.53;5016381;28;20121;-84
2021/04/09 06:16:45;;;;;;;15.68;8.20;;;6.10;99.90;;;7.09;56.30;100472.22;5017389;28;20119;-86
2021/04/09 06:19:12;;;;;;;13.82;6.78;;;6.20;99.90;;;7.15;56.69;100470.88;5019342;28;20029;-84
2021/04/09 06:21:39;;;;;;;11.68;6.22;;;6.30;99.90;;;7.14;56.04;100471.19;5018638;28;20504;-85
2021/04/09 06:24:07;;;;;;;13.23;6.32;;;6.50;99.90;;;7.69;54.81;100468.06;5018071;28;20064;-82
2021/04/09 06:26:34;;;;;;;11.20;6.15;;;6.60;99.90;;;7.76;55.11;100479.44;5017286;28;20026;-82
2021/04/09 06:29:00;;;;;;;13.68;6.75;;;6.70;99.90;;;7.88;54.82;100483.06;5017626;28;20069;-83
2021/04/09 06:31:26;;;;;;;12.45;6.13;;;6.90;99.90;;;7.94;53.56;100473.31;5017685;28;20034;-84
2021/04/09 06:33:53;;;;;;;12.32;7.15;;;7.00;99.90;;;7.89;54.94;100470.78;5018803;28;20470;-84
2021/04/09 06:36:24;;;;;;;12.68;6.88;;;7.10;99.90;;;8.33;53.80;100476.66;5018224;28;20022;-83
2021/04/09 06:38:50;;;;;;;13.68;6.40;;;7.30;99.90;;;8.16;54.20;100474.88;5017869;28;20030;-84
2021/04/09 06:41:17;;;;;;;14.45;6.10;;;7.40;99.90;;;8.42;53.83;100472.59;5018276;28;20338;-83
2021/04/09 06:43:43;;;;;;;9.98;6.28;;;7.50;99.90;;;8.52;53.33;100462.97;5018506;28;20029;-83
2021/04/09 06:46:10;;;;;;;12.30;6.15;;;7.80;99.90;;;8.90;51.46;100465.34;5017905;28;20022;-83
2021/04/09 06:48:36;;;;;;;11.40;6.30;;;7.90;99.90;;;9.14;51.49;100473.66;5019290;28;20452;-83
2021/04/09 06:51:05;;;;;;;13.15;6.07;;;8.10;99.90;;;9.14;51.40;100467.28;5017764;28;20026;-84
2021/04/09 06:53:32;;;;;;;11.88;6.95;;;8.20;99.90;;;9.43;51.19;100476.13;5017586;28;20026;-84
2021/04/09 06:56:00;;;;;;;11.05;6.25;;;8.30;99.90;;;9.31;51.22;100467.00;5035105;28;20391;-84
2021/04/09 06:58:27;;;;;;;11.18;6.10;;;8.30;99.40;;;9.03;51.75;100472.50;5017257;28;20029;-83
2021/04/09 07:01:00;;;;;;;13.05;6.30;;;8.30;98.90;;;8.89;52.18;100467.31;5017241;28;20037;-83
2021/04/09 07:03:28;;;;;;;11.75;6.38;;;8.10;99.80;;;8.96;52.10;100459.19;5033451;28;20342;-84
2021/04/09 07:05:55;;;;;;;12.05;6.10;;;8.00;99.60;;;8.79;52.51;100459.47;5017938;28;20121;-83
2021/04/09 07:08:20;;;;;;;14.82;6.30;;;7.90;99.90;;;8.83;53.12;100471.50;5017216;28;20037;-83
2021/04/09 07:10:47;;;;;;;13.13;6.07;;;7.90;99.90;;;8.87;52.98;100458.50;5018202;28;20084;-84
2021/04/09 07:13:13;;;;;;;8.95;5.70;;;7.90;99.90;;;8.68;52.87;100461.09;5037332;28;20021;-84
2021/04/09 07:15:44;;;;;;;10.38;5.97;;;7.90;99.90;;;9.14;52.37;100456.94;5034847;28;20098;-83
2021/04/09 07:18:16;;;;;;;12.90;6.18;;;8.00;99.90;;;9.19;51.86;100455.84;5017471;28;20033;-83
2021/04/09 07:20:44;;;;;;;12.57;6.05;;;8.20;99.90;;;9.19;51.91;100458.66;5017019;28;20045;-84
2021/04/09 07:23:13;;;;;;;13.63;5.80;;;8.30;99.70;;;9.35;51.71;100451.16;5017545;28;20033;-83
2021/04/09 07:25:45;;;;;;;16.67;5.70;;;8.40;99.40;;;9.44;50.96;100463.78;5033768;28;20037;-83
2021/04/09 07:28:24;;;;;;;10.40;5.80;;;8.50;97.60;;;9.58;50.51;100462.56;5034089;28;20030;-86
2021/04/09 07:30:56;;;;;;;12.27;6.00;;;8.60;96.90;;;9.54;50.78;100457.69;5016826;28;20045;-84
2021/04/09 07:33:26;;;;;;;12.60;5.80;;;8.60;97.00;;;9.75;50.11;100459.47;5049253;28;20073;-83
2021/04/09 07:36:09;;;;;;;16.48;5.82;;;8.70;96.50;;;9.61;49.92;100454.28;5034594;28;20041;-86
2021/04/09 07:38:36;;;;;;;12.57;5.80;;;8.70;95.60;;;9.72;50.01;100452.63;5033579;28;20025;-83
2021/04/09 07:41:11;;;;;;;14.43;6.10;;;8.70;95.80;;;9.76;50.26;100458.31;5033534;28;20052;-85
2021/04/09 07:43:42;;;;;;;12.93;6.30;;;8.80;95.70;;;9.82;50.98;100451.28;5032977;28;20021;-84
2021/04/09 07:46:27;;;;;;;13.10;6.45;;;8.80;96.80;;;9.85;49.61;100456.16;5032937;28;20045;-83
2021/04/09 07:49:05;;;;;;;11.73;5.60;;;9.00;94.60;;;10.24;48.26;100457.97;5035182;28;20026;-83
2021/04/09 07:51:31;;;;;;;8.63;5.75;;;9.40;92.70;;;10.21;48.39;100452.34;5019830;28;20029;-83
2021/04/09 07:54:10;;;;;;;10.52;5.40;;;9.50;91.60;;;10.46;49.31;100457.38;5032119;28;20022;-83
2021/04/09 07:56:45;;;;;;;12.55;5.88;;;9.50;92.90;;;11.30;47.74;100451.28;5032214;28;20037;-83
2021/04/09 07:59:12;;;;;;;11.68;6.07;;;10.10;92.20;;;11.17;47.09;100435.81;5031771;28;20032;-84
2021/04/09 08:01:48;;;;;;;10.85;6.05;;;10.30;90.00;;;11.70;46.33;100443.31;5015443;28;20064;-85
2021/04/09 08:04:14;;;;;;;14.05;5.93;;;10.60;88.60;;;11.80;46.25;100436.28;5017768;28;20092;-85
2021/04/09 08:06:40;;;;;;;10.32;5.88;;;10.80;87.20;;;12.07;45.62;100441.59;5033144;28;20091;-85
2021/04/09 08:09:07;;;;;;;10.68;5.97;;;11.00;85.40;;;12.13;45.52;100444.91;5034028;28;20030;-84
2021/04/09 08:11:39;;;;;;;13.57;6.53;;;11.20;83.90;;;12.08;44.99;100434.81;5017221;28;20263;-86
2021/04/09 08:14:24;;;;;;;12.07;5.43;;;11.10;82.00;;;11.62;45.70;100442.31;5021955;28;20081;-84
2021/04/09 08:16:54;;;;;;;13.93;6.45;;;10.80;81.90;;;11.34;47.44;100444.56;5021823;28;20025;-84
2021/04/09 08:19:26;;;;;;;11.45;6.50;;;10.60;84.90;;;11.93;45.59;100449.75;5034314;28;20057;-84
2021/04/09 08:22:00;;;;;;;13.27;6.13;;;10.90;84.30;;;12.65;44.39;100444.13;5016399;28;20056;-85
2021/04/09 08:24:35;;;;;;;10.30;6.00;;;11.20;82.00;;;12.63;43.78;100452.13;5035046;28;20041;-86
2021/04/09 08:27:03;;;;;;;12.35;5.95;;;11.50;79.70;;;12.90;44.45;100442.53;5033692;28;20037;-85
2021/04/09 08:29:31;;;;;;;9.48;5.53;;;11.70;81.10;;;13.10;43.42;100448.81;5034256;28;20037;-85
2021/04/09 08:32:02;;;;;;;11.00;5.85;;;12.00;77.90;;;13.26;43.73;100443.81;5034545;28;20034;-84
2021/04/09 08:34:30;;;;;;;10.68;5.35;;;12.20;78.00;;;13.50;42.81;100445.34;5018287;28;20049;-84
2021/04/09 08:36:58;;;;;;;10.95;5.38;;;12.40;76.20;;;14.27;42.30;100448.97;5014239;28;20041;-84
2021/04/09 08:39:25;;;;;;;11.27;5.68;;;12.80;76.40;;;14.56;40.82;100452.03;5029925;28;20030;-84
2021/04/09 08:41:53;;;;;;;12.00;5.32;;;13.10;72.30;;;14.37;41.62;100441.84;5030539;28;20026;-83
2021/04/09 08:44:22;;;;;;;13.90;5.78;;;13.20;73.80;;;14.95;40.81;100446.69;5029718;28;20034;-84
2021/04/09 08:46:50;;;;;;;9.60;5.72;;;13.50;71.90;;;14.77;40.54;100440.94;5030866;28;20075;-84
2021/04/09 08:49:18;;;;;;;10.40;5.32;;;13.70;70.40;;;14.76;41.04;100442.16;5033741;28;20129;-83
2021/04/09 08:51:47;;;;;;;12.68;6.03;;;13.60;70.90;;;14.73;41.46;100434.50;5035283;28;20034;-83
2021/04/09 08:54:30;;;;;;;7.88;4.97;;;13.60;70.60;;;14.42;41.21;100447.09;5018007;28;20026;-86
2021/04/09 08:57:03;;;;;;;8.88;5.80;;;13.50;68.60;;;14.60;40.06;100441.63;5033221;28;20143;-83
2021/04/09 08:59:45;;;;;;;11.07;5.78;;;13.60;67.50;;;14.20;41.45;100434.03;5032925;28;20068;-83
2021/04/09 09:02:24;;;;;;;7.70;5.72;;;13.40;68.80;;;14.24;41.43;100451.75;5032834;28;20448;-84
2021/04/09 09:05:12;;;;;;;10.68;5.43;;;13.30;69.30;;;13.83;42.74;100445.31;5016752;28;20117;-83
2021/04/09 09:07:50;;;;;;;11.88;5.78;;;13.00;69.70;;;13.39;43.39;100436.00;5017016;28;20041;-83
2021/04/09 09:10:31;;;;;;;11.60;5.70;;;12.70;71.50;;;12.89;44.71;100452.13;5017190;28;20129;-83
2021/04/09 09:13:08;;;;;;;8.18;5.93;;;12.20;72.80;;;13.05;44.40;100444.34;5017023;28;20553;-85
2021/04/09 09:15:43;;;;;;;15.52;5.70;;;12.20;73.70;;;13.50;44.13;100439.72;5019243;28;20045;-84
2021/04/09 09:18:24;;;;;;;9.00;5.00;;;12.40;74.20;;;14.16;43.97;100436.81;5018619;28;20474;-84
2021/04/09 09:21:15;;;;;;;10.23;5.72;;;12.90;74.20;;;14.45;42.54;100437.09;5019029;28;20041;-83
2021/04/09 09:24:01;;;;;;;8.68;4.88;;;13.10;72.30;;;14.86;40.82;100441.41;5018698;28;20393;-84
2021/04/09 09:26:45;;;;;;;11.60;5.60;;;13.40;70.20;;;14.68;42.34;100446.91;5034732;28;20041;-85
2021/04/09 09:29:28;;;;;;;11.05;4.78;;;13.50;71.30;;;15.05;40.30;100434.69;5017665;28;20567;-83
2021/04/09 09:32:06;;;;;;;7.63;4.97;;;13.70;68.30;;;15.42;40.61;100426.81;5017213;28;20038;-84
2021/04/09 09:34:40;;;;;;;10.57;5.80;;;13.90;69.40;;;15.26;40.31;100435.59;5035214;28;20059;-83
2021/04/09 09:37:27;;;;;;;13.07;6.22;;;14.10;67.40;;;15.86;40.91;100432.19;5035107;28;20052;-84
2021/04/09 09:40:08;;;;;;;9.45;5.30;;;14.40;67.90;;;15.99;39.43;100422.16;5018001;28;20052;-83
2021/04/09 09:42:34;;;;;;;7.30;5.05;;;14.70;65.90;;;16.04;39.22;100427.41;5019987;28;20045;-85
2021/04/09 09:45:35;;;;;;;10.90;5.20;;;14.90;65.30;;;15.51;41.05;100429.31;5025086;28;20024;-85
2021/04/09 09:48:19;;;;;;;8.40;5.15;;;14.70;66.60;;;15.66;40.25;100426.13;5053222;28;20034;-84
2021/04/09 09:50:45;;;;;;;9.68;5.20;;;14.50;66.20;;;15.09;41.09;100425.06;5001329;28;20397;-84
2021/04/09 09:53:11;;;;;;;10.13;5.03;;;14.30;66.60;;;15.16;41.44;100422.28;5033465;28;20026;-82
2021/04/09 09:55:52;;;;;;;10.27;5.43;;;14.20;67.90;;;15.00;41.90;100429.41;5041230;28;20049;-83
2021/04/09 09:58:24;;;;;;;10.13;5.35;;;14.20;67.80;;;15.06;41.30;100416.59;5034650;28;20032;-84
2021/04/09 10:01:00;;;;;;;10.93;5.25;;;14.10;66.90;;;15.62;40.34;100430.13;5033237;28;20041;-85
2021/04/09 10:03:36;;;;;;;;;;;14.40;66.30;;;15.01;41.32;100416.97;5036176;28;20030;-83
2021/04/09 10:06:10;;;;;;;12.73;5.47;;;14.20;66.80;;;14.82;41.42;100428.53;5021133;28;19916;-85
2021/04/09 10:08:38;;;;;;;10.18;5.43;;;13.90;67.00;;;14.66;41.47;100435.25;5020985;28;20038;-85
2021/04/09 10:11:18;;;;;;;10.75;5.45;;;13.90;67.40;;;15.14;42.91;100427.50;5036198;28;20034;-85
2021/04/09 10:13:48;;;;;;;13.48;5.32;;;14.10;69.90;;;14.67;41.88;100434.03;5036575;28;20033;-84
2021/04/09 10:16:25;;;;;;;8.45;5.13;;;13.80;67.50;;;15.00;41.91;100418.19;5042406;28;20022;-84
2021/04/09 10:18:58;;;;;;;11.32;4.88;;;13.80;69.30;;;14.68;42.71;100424.41;5034347;28;20041;-84
2021/04/09 10:21:35;;;;;;;6.97;4.78;;;13.60;69.70;;;14.06;43.38;100419.88;5017589;28;20026;-84
2021/04/09 10:24:18;;;;;;;11.27;5.90;;;13.40;69.30;;;13.86;44.69;100424.91;5035328;28;20396;-83
2021/04/09 10:26:55;;;;;;;8.88;5.28;;;13.10;71.40;;;13.66;44.61;100423.47;5034855;28;20041;-86
2021/04/09 10:29:38;;;;;;;7.82;5.40;;;12.90;71.70;;;13.70;44.95;100427.94;5034250;28;20025;-85
2021/04/09 10:32:17;;;;;;;9.13;6.05;;;12.90;72.70;;;13.66;45.51;100427.09;5035067;28;20084;-84
2021/04/09 10:34:48;;;;;;;9.18;5.10;;;12.80;73.50;;;13.65;45.65;100419.03;5019414;28;20100;-85